Cape Lisburne, Alaska
Current Conditions -  °F | °C
As of 5:55 AM on Sunday 21 Dec 2014 (Local Time) from PALU Reporting Station
Snow Showers Snow Showers  
Wind Chill: -15°   Ceiling: 2200
Heat Index:   Visibility: 10mi
Dew Point: -2°   Wind: 17mph
Humidity: 76%   Direction: 50°NE
Pressure: 29.63"   Gusts: NA
Location:  68.88°N, 166.11°W
Report Text: PALU 211455Z AUTO 05015KT 10SM -SHSN OVC022 M15/M19 A2963 RMK AO2 SNB1355E1422SHSNB1422 SLP033 P0000 60000 T11541187 57004
Loading
Personal Weather Stations






























Interactive Weather Map New forecast layout! Learn more

10-Day Weather Forecast

Advertisements
Track Severe Weather on mobile